Ray, Ohio
Current Conditions -  °F | °C
As of 11:15 PM on Thursday 27 Nov 2014 (Local Time) from KUNI Reporting Station
Overcast Overcast  
Wind Chill: 22°   Ceiling: 3800
Heat Index: 30°   Visibility: 10mi
Dew Point: 20°   Wind: 9mph
Humidity: 67%   Direction: 290°WNW
Pressure: 30.34"   Gusts: 18mph
Location:  39.2°N, 82.68°W
Report Text: KUNI 280415Z AUTO 29008G16KT 10SM OVC038 M01/M06 A3034 RMK AO2 T10111065
Loading
Personal Weather Stations






























Interactive Weather Map New forecast layout! Learn more

10-Day Weather Forecast

Advertisements
Track Severe Weather on mobile